sensor_id;sensor_type;location;lat;lon;timestamp;P1;durP1;ratioP1;P2;durP2;ratioP2
67344;SDS011;54230;52.402;6.276;2022-12-22T00:00:00;27.7;;;14.6;;
67344;SDS011;54230;52.402;6.276;2022-12-22T00:05:00;27.4;;;14.4;;
67344;SDS011;54230;52.402;6.276;2022-12-22T00:10:00;30.3;;;14.9;;
67344;SDS011;54230;52.402;6.276;2022-12-22T00:15:00;27.3;;;13.8;;
67344;SDS011;54230;52.402;6.276;2022-12-22T00:20:00;28.8;;;15.0;;
67344;SDS011;54230;52.402;6.276;2022-12-22T00:25:00;30.1;;;14.9;;
67344;SDS011;54230;52.402;6.276;2022-12-22T00:30:00;29.0;;;14.7;;
67344;SDS011;54230;52.402;6.276;2022-12-22T00:35:00;27.4;;;14.4;;
67344;SDS011;54230;52.402;6.276;2022-12-22T00:40:00;28.8;;;14.9;;
67344;SDS011;54230;52.402;6.276;2022-12-22T00:45:00;26.9;;;14.5;;
67344;SDS011;54230;52.402;6.276;2022-12-22T00:50:00;30.1;;;15.3;;
67344;SDS011;54230;52.402;6.276;2022-12-22T00:55:00;27.9;;;15.0;;
67344;SDS011;54230;52.402;6.276;2022-12-22T01:00:00;29.0;;;15.5;;
67344;SDS011;54230;52.402;6.276;2022-12-22T01:05:00;29.0;;;14.9;;
67344;SDS011;54230;52.402;6.276;2022-12-22T01:10:00;29.8;;;15.5;;
67344;SDS011;54230;52.402;6.276;2022-12-22T01:15:00;29.1;;;15.2;;
67344;SDS011;54230;52.402;6.276;2022-12-22T01:20:00;30.4;;;15.7;;
67344;SDS011;54230;52.402;6.276;2022-12-22T01:25:00;28.7;;;14.8;;
67344;SDS011;54230;52.402;6.276;2022-12-22T01:30:00;27.8;;;15.2;;
67344;SDS011;54230;52.402;6.276;2022-12-22T01:35:00;30.3;;;15.8;;
67344;SDS011;54230;52.402;6.276;2022-12-22T01:40:00;30.0;;;15.5;;
67344;SDS011;54230;52.402;6.276;2022-12-22T01:45:01;30.3;;;15.0;;
67344;SDS011;54230;52.402;6.276;2022-12-22T01:50:00;30.8;;;15.5;;
67344;SDS011;54230;52.402;6.276;2022-12-22T01:55:00;29.4;;;15.2;;
67344;SDS011;54230;52.402;6.276;2022-12-22T02:00:00;31.5;;;15.7;;
67344;SDS011;54230;52.402;6.276;2022-12-22T02:05:00;32.5;;;16.3;;
67344;SDS011;54230;52.402;6.276;2022-12-22T02:10:02;31.4;;;15.7;;
67344;SDS011;54230;52.402;6.276;2022-12-22T02:15:01;32.3;;;16.1;;
67344;SDS011;54230;52.402;6.276;2022-12-22T02:20:06;32.7;;;16.2;;
67344;SDS011;54230;52.402;6.276;2022-12-22T02:25:02;33.6;;;16.5;;
67344;SDS011;54230;52.402;6.276;2022-12-22T02:30:01;31.8;;;16.7;;
67344;SDS011;54230;52.402;6.276;2022-12-22T02:35:00;32.5;;;16.4;;
67344;SDS011;54230;52.402;6.276;2022-12-22T02:40:01;36.9;;;17.0;;
67344;SDS011;54230;52.402;6.276;2022-12-22T02:45:03;32.8;;;16.0;;
67344;SDS011;54230;52.402;6.276;2022-12-22T02:50:02;34.8;;;16.6;;
67344;SDS011;54230;52.402;6.276;2022-12-22T02:55:00;35.9;;;16.3;;
67344;SDS011;54230;52.402;6.276;2022-12-22T03:00:00;33.8;;;15.4;;
67344;SDS011;54230;52.402;6.276;2022-12-22T03:05:00;33.1;;;16.3;;
67344;SDS011;54230;52.402;6.276;2022-12-22T03:10:00;32.4;;;16.7;;
67344;SDS011;54230;52.402;6.276;2022-12-22T03:15:00;35.2;;;16.4;;
67344;SDS011;54230;52.402;6.276;2022-12-22T03:20:00;36.0;;;17.2;;
67344;SDS011;54230;52.402;6.276;2022-12-22T03:25:00;35.3;;;16.8;;
67344;SDS011;54230;52.402;6.276;2022-12-22T03:30:00;36.6;;;17.2;;
67344;SDS011;54230;52.402;6.276;2022-12-22T03:35:00;34.5;;;16.4;;
67344;SDS011;54230;52.402;6.276;2022-12-22T03:40:00;37.2;;;16.4;;
67344;SDS011;54230;52.402;6.276;2022-12-22T03:45:00;34.9;;;16.8;;
67344;SDS011;54230;52.402;6.276;2022-12-22T03:50:00;35.4;;;17.0;;
67344;SDS011;54230;52.402;6.276;2022-12-22T03:55:00;34.7;;;16.4;;
67344;SDS011;54230;52.402;6.276;2022-12-22T04:00:00;36.8;;;16.0;;
67344;SDS011;54230;52.402;6.276;2022-12-22T04:05:00;33.6;;;16.3;;
67344;SDS011;54230;52.402;6.276;2022-12-22T04:10:00;33.9;;;15.6;;
67344;SDS011;54230;52.402;6.276;2022-12-22T04:15:00;33.0;;;15.7;;
67344;SDS011;54230;52.402;6.276;2022-12-22T04:20:00;35.4;;;16.5;;
67344;SDS011;54230;52.402;6.276;2022-12-22T04:25:00;34.9;;;16.4;;
67344;SDS011;54230;52.402;6.276;2022-12-22T04:30:00;35.7;;;16.4;;
67344;SDS011;54230;52.402;6.276;2022-12-22T04:35:00;38.3;;;16.8;;
67344;SDS011;54230;52.402;6.276;2022-12-22T04:40:00;37.4;;;16.8;;
67344;SDS011;54230;52.402;6.276;2022-12-22T04:45:00;40.1;;;16.9;;
67344;SDS011;54230;52.402;6.276;2022-12-22T04:50:00;41.5;;;17.1;;
67344;SDS011;54230;52.402;6.276;2022-12-22T04:55:00;39.3;;;16.5;;
67344;SDS011;54230;52.402;6.276;2022-12-22T05:00:00;41.7;;;16.8;;
67344;SDS011;54230;52.402;6.276;2022-12-22T05:05:00;43.4;;;18.0;;
67344;SDS011;54230;52.402;6.276;2022-12-22T05:10:00;43.5;;;17.0;;
67344;SDS011;54230;52.402;6.276;2022-12-22T05:15:00;46.7;;;17.5;;
67344;SDS011;54230;52.402;6.276;2022-12-22T05:20:00;44.7;;;17.3;;
67344;SDS011;54230;52.402;6.276;2022-12-22T05:25:00;45.9;;;18.0;;
67344;SDS011;54230;52.402;6.276;2022-12-22T05:30:00;44.6;;;16.9;;
67344;SDS011;54230;52.402;6.276;2022-12-22T05:35:00;48.4;;;17.8;;
67344;SDS011;54230;52.402;6.276;2022-12-22T05:40:00;48.1;;;17.8;;
67344;SDS011;54230;52.402;6.276;2022-12-22T05:45:01;51.0;;;17.7;;
67344;SDS011;54230;52.402;6.276;2022-12-22T05:50:00;48.9;;;18.1;;
67344;SDS011;54230;52.402;6.276;2022-12-22T05:55:00;54.0;;;18.0;;
67344;SDS011;54230;52.402;6.276;2022-12-22T06:00:00;53.9;;;18.2;;
67344;SDS011;54230;52.402;6.276;2022-12-22T06:05:00;51.6;;;17.7;;
67344;SDS011;54230;52.402;6.276;2022-12-22T06:10:00;47.4;;;17.3;;
67344;SDS011;54230;52.402;6.276;2022-12-22T06:15:00;50.8;;;17.2;;
67344;SDS011;54230;52.402;6.276;2022-12-22T06:20:00;49.4;;;16.7;;
67344;SDS011;54230;52.402;6.276;2022-12-22T06:25:00;35.2;;;13.4;;
67344;SDS011;54230;52.402;6.276;2022-12-22T06:30:00;29.8;;;11.5;;
67344;SDS011;54230;52.402;6.276;2022-12-22T06:35:00;33.2;;;12.6;;
67344;SDS011;54230;52.402;6.276;2022-12-22T06:40:00;33.2;;;12.0;;
67344;SDS011;54230;52.402;6.276;2022-12-22T06:45:00;32.3;;;12.1;;
67344;SDS011;54230;52.402;6.276;2022-12-22T06:50:00;30.8;;;12.5;;
67344;SDS011;54230;52.402;6.276;2022-12-22T06:55:00;30.9;;;11.4;;
67344;SDS011;54230;52.402;6.276;2022-12-22T07:00:00;30.0;;;12.1;;
67344;SDS011;54230;52.402;6.276;2022-12-22T07:05:00;30.1;;;12.0;;
67344;SDS011;54230;52.402;6.276;2022-12-22T07:10:00;35.5;;;12.9;;
67344;SDS011;54230;52.402;6.276;2022-12-22T07:15:00;38.5;;;12.4;;
67344;SDS011;54230;52.402;6.276;2022-12-22T07:20:00;51.9;;;14.4;;
67344;SDS011;54230;52.402;6.276;2022-12-22T07:25:00;56.3;;;15.4;;
67344;SDS011;54230;52.402;6.276;2022-12-22T07:30:00;61.1;;;16.7;;
67344;SDS011;54230;52.402;6.276;2022-12-22T07:35:00;87.5;;;20.5;;
67344;SDS011;54230;52.402;6.276;2022-12-22T07:40:00;89.5;;;20.1;;
67344;SDS011;54230;52.402;6.276;2022-12-22T07:45:00;94.3;;;21.3;;
67344;SDS011;54230;52.402;6.276;2022-12-22T07:50:00;98.7;;;21.5;;
67344;SDS011;54230;52.402;6.276;2022-12-22T07:55:00;94.7;;;21.3;;
67344;SDS011;54230;52.402;6.276;2022-12-22T08:00:00;92.6;;;20.6;;
67344;SDS011;54230;52.402;6.276;2022-12-22T08:05:00;88.3;;;20.8;;
67344;SDS011;54230;52.402;6.276;2022-12-22T08:10:00;88.8;;;20.8;;
67344;SDS011;54230;52.402;6.276;2022-12-22T08:15:00;95.0;;;20.7;;
67344;SDS011;54230;52.402;6.276;2022-12-22T08:20:00;80.5;;;20.0;;
67344;SDS011;54230;52.402;6.276;2022-12-22T08:25:00;82.8;;;19.8;;
67344;SDS011;54230;52.402;6.276;2022-12-22T08:30:00;70.1;;;18.7;;
67344;SDS011;54230;52.402;6.276;2022-12-22T08:35:00;74.6;;;18.8;;
67344;SDS011;54230;52.402;6.276;2022-12-22T08:40:00;77.6;;;19.0;;
67344;SDS011;54230;52.402;6.276;2022-12-22T08:45:00;70.0;;;18.4;;
67344;SDS011;54230;52.402;6.276;2022-12-22T08:50:00;65.4;;;18.0;;
67344;SDS011;54230;52.402;6.276;2022-12-22T08:55:00;69.1;;;18.1;;
67344;SDS011;54230;52.402;6.276;2022-12-22T09:00:00;63.1;;;18.3;;
67344;SDS011;54230;52.402;6.276;2022-12-22T09:05:00;62.6;;;17.9;;
67344;SDS011;54230;52.402;6.276;2022-12-22T09:10:00;62.6;;;17.7;;
67344;SDS011;54230;52.402;6.276;2022-12-22T09:15:00;58.8;;;17.5;;
67344;SDS011;54230;52.402;6.276;2022-12-22T09:20:00;66.3;;;19.2;;
67344;SDS011;54230;52.402;6.276;2022-12-22T09:25:00;55.7;;;16.3;;
67344;SDS011;54230;52.402;6.276;2022-12-22T09:30:00;47.5;;;16.5;;
67344;SDS011;54230;52.402;6.276;2022-12-22T09:35:00;46.7;;;15.3;;
67344;SDS011;54230;52.402;6.276;2022-12-22T09:40:00;44.3;;;14.9;;
67344;SDS011;54230;52.402;6.276;2022-12-22T09:45:00;40.0;;;14.0;;
67344;SDS011;54230;52.402;6.276;2022-12-22T09:50:00;35.9;;;13.1;;
67344;SDS011;54230;52.402;6.276;2022-12-22T09:55:00;33.4;;;12.0;;
67344;SDS011;54230;52.402;6.276;2022-12-22T10:00:04;34.2;;;12.1;;
67344;SDS011;54230;52.402;6.276;2022-12-22T10:05:05;38.8;;;12.7;;
67344;SDS011;54230;52.402;6.276;2022-12-22T10:10:04;38.9;;;13.5;;
67344;SDS011;54230;52.402;6.276;2022-12-22T10:15:00;38.9;;;13.6;;
67344;SDS011;54230;52.402;6.276;2022-12-22T10:20:18;35.6;;;12.5;;
67344;SDS011;54230;52.402;6.276;2022-12-22T10:25:00;30.8;;;11.7;;
67344;SDS011;54230;52.402;6.276;2022-12-22T10:35:01;32.6;;;12.1;;
67344;SDS011;54230;52.402;6.276;2022-12-22T10:45:00;32.0;;;11.8;;
67344;SDS011;54230;52.402;6.276;2022-12-22T10:50:00;31.7;;;12.1;;
67344;SDS011;54230;52.402;6.276;2022-12-22T11:00:01;30.5;;;12.0;;
67344;SDS011;54230;52.402;6.276;2022-12-22T11:05:01;32.5;;;12.0;;
67344;SDS011;54230;52.402;6.276;2022-12-22T11:10:00;30.2;;;12.0;;
67344;SDS011;54230;52.402;6.276;2022-12-22T11:15:01;27.5;;;10.9;;
67344;SDS011;54230;52.402;6.276;2022-12-22T11:20:13;28.1;;;10.3;;
67344;SDS011;54230;52.402;6.276;2022-12-22T11:25:08;24.3;;;9.2;;
67344;SDS011;54230;52.402;6.276;2022-12-22T11:30:02;22.8;;;9.1;;
67344;SDS011;54230;52.402;6.276;2022-12-22T11:35:02;21.4;;;8.1;;
67344;SDS011;54230;52.402;6.276;2022-12-22T11:40:02;21.8;;;8.6;;
67344;SDS011;54230;52.402;6.276;2022-12-22T11:45:04;21.4;;;9.3;;
67344;SDS011;54230;52.402;6.276;2022-12-22T11:50:06;22.3;;;9.3;;
67344;SDS011;54230;52.402;6.276;2022-12-22T11:55:04;25.1;;;10.0;;
67344;SDS011;54230;52.402;6.276;2022-12-22T12:00:02;22.2;;;8.4;;
67344;SDS011;54230;52.402;6.276;2022-12-22T12:05:07;22.5;;;8.2;;
67344;SDS011;54230;52.402;6.276;2022-12-22T12:10:04;22.5;;;8.1;;
67344;SDS011;54230;52.402;6.276;2022-12-22T12:15:03;20.0;;;7.3;;
67344;SDS011;54230;52.402;6.276;2022-12-22T12:20:02;17.3;;;5.8;;
67344;SDS011;54230;52.402;6.276;2022-12-22T12:25:00;14.3;;;5.9;;
67344;SDS011;54230;52.402;6.276;2022-12-22T12:30:01;17.4;;;6.0;;
67344;SDS011;54230;52.402;6.276;2022-12-22T12:35:02;15.3;;;5.3;;
67344;SDS011;54230;52.402;6.276;2022-12-22T12:40:03;13.9;;;5.4;;
67344;SDS011;54230;52.402;6.276;2022-12-22T12:45:00;14.0;;;5.5;;
67344;SDS011;54230;52.402;6.276;2022-12-22T12:50:01;16.2;;;5.6;;
67344;SDS011;54230;52.402;6.276;2022-12-22T13:00:00;16.4;;;5.2;;
67344;SDS011;54230;52.402;6.276;2022-12-22T13:05:01;15.5;;;5.8;;
67344;SDS011;54230;52.402;6.276;2022-12-22T13:15:00;12.5;;;5.0;;
67344;SDS011;54230;52.402;6.276;2022-12-22T13:20:00;12.9;;;5.5;;
67344;SDS011;54230;52.402;6.276;2022-12-22T13:25:00;10.9;;;4.7;;
67344;SDS011;54230;52.402;6.276;2022-12-22T13:30:00;14.2;;;4.6;;
67344;SDS011;54230;52.402;6.276;2022-12-22T13:35:03;13.0;;;5.0;;
67344;SDS011;54230;52.402;6.276;2022-12-22T13:40:03;10.7;;;4.6;;
67344;SDS011;54230;52.402;6.276;2022-12-22T13:45:00;13.6;;;5.9;;
67344;SDS011;54230;52.402;6.276;2022-12-22T13:50:00;13.2;;;5.9;;
67344;SDS011;54230;52.402;6.276;2022-12-22T13:55:00;14.8;;;6.9;;
67344;SDS011;54230;52.402;6.276;2022-12-22T14:00:00;15.1;;;6.8;;
67344;SDS011;54230;52.402;6.276;2022-12-22T14:05:02;13.5;;;6.1;;
67344;SDS011;54230;52.402;6.276;2022-12-22T14:10:00;17.3;;;7.2;;
67344;SDS011;54230;52.402;6.276;2022-12-22T14:15:00;17.5;;;6.9;;
67344;SDS011;54230;52.402;6.276;2022-12-22T14:20:01;14.4;;;6.8;;
67344;SDS011;54230;52.402;6.276;2022-12-22T14:25:01;20.1;;;8.0;;
67344;SDS011;54230;52.402;6.276;2022-12-22T14:30:00;18.8;;;8.4;;
67344;SDS011;54230;52.402;6.276;2022-12-22T14:35:00;19.4;;;8.7;;
67344;SDS011;54230;52.402;6.276;2022-12-22T14:40:00;20.2;;;10.0;;
67344;SDS011;54230;52.402;6.276;2022-12-22T14:45:00;20.2;;;9.3;;
67344;SDS011;54230;52.402;6.276;2022-12-22T14:50:01;18.8;;;9.5;;
67344;SDS011;54230;52.402;6.276;2022-12-22T14:55:00;18.5;;;8.3;;
67344;SDS011;54230;52.402;6.276;2022-12-22T15:00:01;18.6;;;8.3;;
67344;SDS011;54230;52.402;6.276;2022-12-22T15:10:00;18.4;;;8.0;;
67344;SDS011;54230;52.402;6.276;2022-12-22T15:15:00;16.6;;;7.9;;
67344;SDS011;54230;52.402;6.276;2022-12-22T15:20:00;16.6;;;7.3;;
67344;SDS011;54230;52.402;6.276;2022-12-22T15:25:00;17.3;;;7.8;;
67344;SDS011;54230;52.402;6.276;2022-12-22T15:30:00;15.9;;;7.3;;
67344;SDS011;54230;52.402;6.276;2022-12-22T15:35:00;19.1;;;8.4;;
67344;SDS011;54230;52.402;6.276;2022-12-22T15:40:00;19.8;;;9.0;;
67344;SDS011;54230;52.402;6.276;2022-12-22T15:45:00;20.7;;;9.1;;
67344;SDS011;54230;52.402;6.276;2022-12-22T15:50:00;19.9;;;9.6;;
67344;SDS011;54230;52.402;6.276;2022-12-22T15:55:00;24.2;;;10.1;;
67344;SDS011;54230;52.402;6.276;2022-12-22T16:00:00;22.7;;;10.1;;
67344;SDS011;54230;52.402;6.276;2022-12-22T16:05:00;21.1;;;9.9;;
67344;SDS011;54230;52.402;6.276;2022-12-22T16:10:00;23.8;;;10.9;;
67344;SDS011;54230;52.402;6.276;2022-12-22T16:15:00;24.7;;;11.5;;
67344;SDS011;54230;52.402;6.276;2022-12-22T16:20:00;25.0;;;11.3;;
67344;SDS011;54230;52.402;6.276;2022-12-22T16:25:00;25.7;;;12.7;;
67344;SDS011;54230;52.402;6.276;2022-12-22T16:30:00;29.7;;;13.3;;
67344;SDS011;54230;52.402;6.276;2022-12-22T16:35:06;28.5;;;13.5;;
67344;SDS011;54230;52.402;6.276;2022-12-22T16:40:00;30.8;;;15.2;;
67344;SDS011;54230;52.402;6.276;2022-12-22T16:45:01;33.5;;;14.9;;
67344;SDS011;54230;52.402;6.276;2022-12-22T16:50:00;38.2;;;18.7;;
67344;SDS011;54230;52.402;6.276;2022-12-22T16:55:00;38.2;;;19.0;;
67344;SDS011;54230;52.402;6.276;2022-12-22T17:00:00;35.1;;;15.7;;
67344;SDS011;54230;52.402;6.276;2022-12-22T17:05:00;37.6;;;15.9;;
67344;SDS011;54230;52.402;6.276;2022-12-22T17:10:00;36.9;;;16.4;;
67344;SDS011;54230;52.402;6.276;2022-12-22T17:15:00;39.2;;;16.8;;
67344;SDS011;54230;52.402;6.276;2022-12-22T17:20:00;40.6;;;17.5;;
67344;SDS011;54230;52.402;6.276;2022-12-22T17:25:01;39.0;;;18.2;;
67344;SDS011;54230;52.402;6.276;2022-12-22T17:30:00;43.5;;;20.2;;
67344;SDS011;54230;52.402;6.276;2022-12-22T17:35:00;46.3;;;20.5;;
67344;SDS011;54230;52.402;6.276;2022-12-22T17:40:00;44.4;;;18.6;;
67344;SDS011;54230;52.402;6.276;2022-12-22T17:45:00;45.0;;;19.5;;
67344;SDS011;54230;52.402;6.276;2022-12-22T17:50:00;48.7;;;19.6;;
67344;SDS011;54230;52.402;6.276;2022-12-22T17:55:00;49.9;;;21.0;;
67344;SDS011;54230;52.402;6.276;2022-12-22T18:00:00;41.2;;;17.5;;
67344;SDS011;54230;52.402;6.276;2022-12-22T18:05:00;43.8;;;17.9;;
67344;SDS011;54230;52.402;6.276;2022-12-22T18:10:00;42.8;;;18.0;;
67344;SDS011;54230;52.402;6.276;2022-12-22T18:15:00;44.1;;;17.7;;
67344;SDS011;54230;52.402;6.276;2022-12-22T18:20:00;44.2;;;17.9;;
67344;SDS011;54230;52.402;6.276;2022-12-22T18:25:00;45.1;;;17.5;;
67344;SDS011;54230;52.402;6.276;2022-12-22T18:30:00;47.8;;;18.1;;
67344;SDS011;54230;52.402;6.276;2022-12-22T18:35:00;45.2;;;18.2;;
67344;SDS011;54230;52.402;6.276;2022-12-22T18:40:00;49.4;;;19.2;;
67344;SDS011;54230;52.402;6.276;2022-12-22T18:45:00;48.3;;;18.5;;
67344;SDS011;54230;52.402;6.276;2022-12-22T18:50:00;52.7;;;18.8;;
67344;SDS011;54230;52.402;6.276;2022-12-22T18:55:00;49.0;;;18.6;;
67344;SDS011;54230;52.402;6.276;2022-12-22T19:00:00;50.7;;;18.5;;
67344;SDS011;54230;52.402;6.276;2022-12-22T19:05:00;44.3;;;17.3;;
67344;SDS011;54230;52.402;6.276;2022-12-22T19:10:00;44.3;;;17.1;;
67344;SDS011;54230;52.402;6.276;2022-12-22T19:15:02;42.5;;;17.2;;
67344;SDS011;54230;52.402;6.276;2022-12-22T19:20:00;41.8;;;16.6;;
67344;SDS011;54230;52.402;6.276;2022-12-22T19:25:00;39.8;;;15.9;;
67344;SDS011;54230;52.402;6.276;2022-12-22T19:30:00;39.3;;;15.9;;
67344;SDS011;54230;52.402;6.276;2022-12-22T19:35:00;36.4;;;15.9;;
67344;SDS011;54230;52.402;6.276;2022-12-22T19:40:00;39.9;;;16.5;;
67344;SDS011;54230;52.402;6.276;2022-12-22T19:45:00;37.5;;;16.1;;
67344;SDS011;54230;52.402;6.276;2022-12-22T19:50:00;35.0;;;15.4;;
67344;SDS011;54230;52.402;6.276;2022-12-22T19:55:00;38.8;;;15.6;;
67344;SDS011;54230;52.402;6.276;2022-12-22T20:00:00;36.3;;;15.3;;
67344;SDS011;54230;52.402;6.276;2022-12-22T20:05:00;35.0;;;14.2;;
67344;SDS011;54230;52.402;6.276;2022-12-22T20:10:00;32.4;;;13.5;;
67344;SDS011;54230;52.402;6.276;2022-12-22T20:15:00;35.2;;;15.6;;
67344;SDS011;54230;52.402;6.276;2022-12-22T20:20:00;31.4;;;12.3;;
67344;SDS011;54230;52.402;6.276;2022-12-22T20:25:00;30.2;;;12.9;;
67344;SDS011;54230;52.402;6.276;2022-12-22T20:30:00;32.4;;;15.4;;
67344;SDS011;54230;52.402;6.276;2022-12-22T20:35:00;32.7;;;15.5;;
67344;SDS011;54230;52.402;6.276;2022-12-22T20:40:00;30.1;;;12.5;;
67344;SDS011;54230;52.402;6.276;2022-12-22T20:45:00;30.9;;;13.6;;
67344;SDS011;54230;52.402;6.276;2022-12-22T20:50:00;27.4;;;12.9;;
67344;SDS011;54230;52.402;6.276;2022-12-22T20:55:00;27.6;;;12.1;;
67344;SDS011;54230;52.402;6.276;2022-12-22T21:00:00;26.4;;;11.4;;
67344;SDS011;54230;52.402;6.276;2022-12-22T21:05:00;33.4;;;13.7;;
67344;SDS011;54230;52.402;6.276;2022-12-22T21:10:00;31.6;;;12.2;;
67344;SDS011;54230;52.402;6.276;2022-12-22T21:15:00;30.5;;;11.9;;
67344;SDS011;54230;52.402;6.276;2022-12-22T21:20:00;27.9;;;11.5;;
67344;SDS011;54230;52.402;6.276;2022-12-22T21:25:00;31.9;;;12.5;;
67344;SDS011;54230;52.402;6.276;2022-12-22T21:30:00;33.4;;;12.3;;
67344;SDS011;54230;52.402;6.276;2022-12-22T21:35:00;35.6;;;13.3;;
67344;SDS011;54230;52.402;6.276;2022-12-22T21:40:00;38.9;;;13.4;;
67344;SDS011;54230;52.402;6.276;2022-12-22T21:45:00;41.7;;;13.7;;
67344;SDS011;54230;52.402;6.276;2022-12-22T21:50:00;48.8;;;14.8;;
67344;SDS011;54230;52.402;6.276;2022-12-22T21:55:00;43.2;;;14.1;;
67344;SDS011;54230;52.402;6.276;2022-12-22T22:00:00;48.1;;;14.7;;
67344;SDS011;54230;52.402;6.276;2022-12-22T22:05:00;57.7;;;16.0;;
67344;SDS011;54230;52.402;6.276;2022-12-22T22:10:00;55.3;;;15.8;;
67344;SDS011;54230;52.402;6.276;2022-12-22T22:15:00;59.0;;;15.9;;
67344;SDS011;54230;52.402;6.276;2022-12-22T22:20:00;60.4;;;16.8;;
67344;SDS011;54230;52.402;6.276;2022-12-22T22:25:00;59.9;;;17.0;;
67344;SDS011;54230;52.402;6.276;2022-12-22T22:30:00;58.5;;;16.1;;
67344;SDS011;54230;52.402;6.276;2022-12-22T22:35:00;57.4;;;16.5;;
67344;SDS011;54230;52.402;6.276;2022-12-22T22:40:00;53.3;;;16.3;;
67344;SDS011;54230;52.402;6.276;2022-12-22T22:45:00;56.1;;;16.8;;
67344;SDS011;54230;52.402;6.276;2022-12-22T22:50:00;55.4;;;16.4;;
67344;SDS011;54230;52.402;6.276;2022-12-22T22:55:00;54.7;;;17.1;;
67344;SDS011;54230;52.402;6.276;2022-12-22T23:00:00;55.4;;;16.9;;
67344;SDS011;54230;52.402;6.276;2022-12-22T23:05:00;51.8;;;16.3;;
67344;SDS011;54230;52.402;6.276;2022-12-22T23:10:00;58.4;;;17.2;;
67344;SDS011;54230;52.402;6.276;2022-12-22T23:15:00;60.5;;;17.9;;
67344;SDS011;54230;52.402;6.276;2022-12-22T23:20:00;53.3;;;16.8;;
67344;SDS011;54230;52.402;6.276;2022-12-22T23:25:00;50.5;;;16.4;;
67344;SDS011;54230;52.402;6.276;2022-12-22T23:30:00;56.9;;;17.9;;
67344;SDS011;54230;52.402;6.276;2022-12-22T23:35:00;55.1;;;17.1;;
67344;SDS011;54230;52.402;6.276;2022-12-22T23:40:00;58.0;;;18.3;;
67344;SDS011;54230;52.402;6.276;2022-12-22T23:45:00;58.5;;;18.4;;
67344;SDS011;54230;52.402;6.276;2022-12-22T23:50:00;58.1;;;18.2;;
67344;SDS011;54230;52.402;6.276;2022-12-22T23:55:00;63.4;;;18.5;;
